createdAt,value
2018-08-13T00:01:58.731Z,100321.55
2018-08-13T00:04:29.287Z,100314.70
2018-08-13T00:06:59.780Z,100315.80
2018-08-13T00:09:35.272Z,100310.56
2018-08-13T00:12:05.880Z,100304.02
2018-08-13T00:14:36.393Z,100309.02
2018-08-13T00:17:06.994Z,100306.72
2018-08-13T00:19:37.741Z,100301.92
2018-08-13T00:22:08.191Z,100304.00
2018-08-13T00:24:38.755Z,100295.70
2018-08-13T00:27:09.289Z,100295.59
2018-08-13T00:29:39.895Z,100292.14
2018-08-13T00:32:10.294Z,100287.97
2018-08-13T00:34:40.711Z,100286.22
2018-08-13T00:37:11.212Z,100285.50
2018-08-13T00:39:41.791Z,100277.28
2018-08-13T00:42:12.352Z,100283.11
2018-08-13T00:44:42.962Z,100281.34
2018-08-13T00:47:13.533Z,100279.91
2018-08-13T00:49:44.138Z,100278.50
2018-08-13T00:52:14.605Z,100277.77
2018-08-13T00:54:45.323Z,100276.44
2018-08-13T00:57:15.886Z,100276.73
2018-08-13T00:59:46.367Z,100277.20
2018-08-13T01:02:16.721Z,100274.09
2018-08-13T01:04:47.365Z,100272.45
2018-08-13T01:07:17.808Z,100270.91
2018-08-13T01:09:48.394Z,100267.83
2018-08-13T01:12:18.952Z,100265.81
2018-08-13T01:14:49.585Z,100262.22
2018-08-13T01:17:20.048Z,100255.31
2018-08-13T01:19:50.437Z,100259.97
2018-08-13T01:22:20.937Z,100256.28
2018-08-13T01:24:51.570Z,100258.16
2018-08-13T01:27:27.140Z,100255.91
2018-08-13T01:29:57.409Z,100252.61
2018-08-13T01:32:28.156Z,100249.02
2018-08-13T01:34:58.926Z,100245.10
2018-08-13T01:37:29.675Z,100243.22
2018-08-13T01:40:00.335Z,100245.13
2018-08-13T01:42:30.715Z,100240.83
2018-08-13T01:45:01.282Z,100241.90
2018-08-13T01:47:31.913Z,100236.09
2018-08-13T01:50:02.419Z,100233.34
2018-08-13T01:52:33.085Z,100230.62
2018-08-13T01:55:03.666Z,100230.37
2018-08-13T01:57:34.339Z,100226.22
2018-08-13T02:00:06.568Z,100217.31
2018-08-13T02:02:36.941Z,100224.16
2018-08-13T02:05:08.043Z,100210.95
2018-08-13T02:07:38.995Z,100214.07
2018-08-13T02:10:11.708Z,100208.23
2018-08-13T02:12:42.546Z,100210.39
2018-08-13T02:15:13.215Z,100208.12
2018-08-13T02:17:43.805Z,100204.20
2018-08-13T02:20:14.486Z,100197.30
2018-08-13T02:22:45.224Z,100192.19
2018-08-13T02:25:15.733Z,100192.87
2018-08-13T02:27:46.332Z,100194.19
2018-08-13T02:30:17.026Z,100193.81
2018-08-13T02:32:47.609Z,100192.36
2018-08-13T02:35:18.053Z,100189.87
2018-08-13T02:37:48.500Z,100188.09
2018-08-13T02:40:19.044Z,100191.52
2018-08-13T02:42:49.670Z,100188.78
2018-08-13T02:45:20.239Z,100188.91
2018-08-13T02:47:50.860Z,100186.89
2018-08-13T02:50:21.291Z,100182.72
2018-08-13T02:52:51.826Z,100180.78
2018-08-13T02:55:22.305Z,100181.39
2018-08-13T02:57:52.636Z,100177.81
2018-08-13T03:00:23.136Z,100178.78
2018-08-13T03:02:53.618Z,100177.61
2018-08-13T03:05:24.208Z,100174.62
2018-08-13T03:07:54.778Z,100168.34
2018-08-13T03:10:25.486Z,100170.23
2018-08-13T03:12:55.776Z,100161.70
2018-08-13T03:15:26.285Z,100164.44
2018-08-13T03:17:56.870Z,100163.63
2018-08-13T03:20:27.473Z,100162.53
2018-08-13T03:22:58.045Z,100158.40
2018-08-13T03:25:28.641Z,100161.22
2018-08-13T03:27:59.213Z,100156.97
2018-08-13T03:30:29.812Z,100157.78
2018-08-13T03:33:00.407Z,100159.33
2018-08-13T03:35:30.815Z,100159.22
2018-08-13T03:38:01.143Z,100160.41
2018-08-13T03:40:31.660Z,100164.08
2018-08-13T03:43:02.275Z,100165.98
2018-08-13T03:45:32.930Z,100164.56
2018-08-13T03:48:03.446Z,100168.22
2018-08-13T03:50:34.067Z,100162.86
2018-08-13T03:53:04.697Z,100163.44
2018-08-13T03:55:35.212Z,100162.02
2018-08-13T03:58:05.901Z,100155.71
2018-08-13T04:00:36.359Z,100153.98
2018-08-13T04:03:07.495Z,100151.91
2018-08-13T04:05:37.962Z,100152.66
2018-08-13T04:08:08.711Z,100158.44
2018-08-13T04:10:39.367Z,100151.38
2018-08-13T04:13:10.033Z,100150.23
2018-08-13T04:15:40.707Z,100145.15
2018-08-13T04:18:11.502Z,100149.31
2018-08-13T04:20:42.204Z,100152.05
2018-08-13T04:23:12.793Z,100149.17
2018-08-13T04:25:43.378Z,100138.39
2018-08-13T04:28:13.844Z,100132.83
2018-08-13T04:30:44.384Z,100128.67
2018-08-13T04:33:14.806Z,100131.06
2018-08-13T04:35:45.410Z,100126.45
2018-08-13T04:38:15.953Z,100127.52
2018-08-13T04:40:46.477Z,100117.94
2018-08-13T04:43:17.144Z,100115.17
2018-08-13T04:45:47.629Z,100123.71
2018-08-13T04:48:17.694Z,100125.38
2018-08-13T04:50:47.840Z,100115.91
2018-08-13T04:53:18.252Z,100123.88
2018-08-13T04:55:48.736Z,100123.22
2018-08-13T04:58:18.800Z,100119.27
2018-08-13T05:00:49.394Z,100116.66
2018-08-13T05:03:19.873Z,100122.71
2018-08-13T05:05:50.455Z,100118.50
2018-08-13T05:08:21.011Z,100123.98
2018-08-13T05:10:51.792Z,100113.05
2018-08-13T05:13:22.420Z,100109.98
2018-08-13T05:15:52.944Z,100108.00
2018-08-13T05:18:23.267Z,100108.41
2018-08-13T05:20:53.845Z,100115.23
2018-08-13T05:23:24.316Z,100117.42
2018-08-13T05:25:54.933Z,100110.25
2018-08-13T05:28:25.437Z,100110.73
2018-08-13T05:30:56.067Z,100109.28
2018-08-13T05:33:26.579Z,100110.70
2018-08-13T05:35:57.132Z,100112.53
2018-08-13T05:38:27.349Z,100118.22
2018-08-13T05:40:57.808Z,100115.39
2018-08-13T05:43:28.384Z,100113.52
2018-08-13T05:45:59.008Z,100116.77
2018-08-13T05:48:29.693Z,100114.09
2018-08-13T05:51:00.275Z,100112.44
2018-08-13T05:53:30.832Z,100107.47
2018-08-13T05:56:01.405Z,100103.36
2018-08-13T05:58:31.908Z,100103.28
2018-08-13T06:01:02.508Z,100096.00
2018-08-13T06:03:33.288Z,100098.78
2018-08-13T06:06:04.028Z,100094.16
2018-08-13T06:08:34.542Z,100083.52
2018-08-13T06:11:05.288Z,100077.85
2018-08-13T06:13:35.936Z,100064.80
2018-08-13T06:16:06.517Z,100068.83
2018-08-13T06:18:37.104Z,100055.20
2018-08-13T06:21:07.724Z,100055.23
2018-08-13T06:23:38.203Z,100050.52
2018-08-13T06:26:08.899Z,100042.37
2018-08-13T06:28:39.412Z,100047.44
2018-08-13T06:31:10.059Z,100044.08
2018-08-13T06:33:40.599Z,100049.34
2018-08-13T06:36:11.083Z,100057.56
2018-08-13T06:38:41.772Z,100061.09
2018-08-13T06:41:12.459Z,100069.00
2018-08-13T06:43:43.204Z,100066.09
2018-08-13T06:46:13.919Z,100067.59
2018-08-13T06:48:44.519Z,100064.59
2018-08-13T06:51:14.928Z,100065.57
2018-08-13T06:53:45.440Z,100067.52
2018-08-13T06:56:16.040Z,100064.61
2018-08-13T06:58:46.635Z,100062.22
2018-08-13T07:01:17.269Z,100055.75
2018-08-13T07:03:47.783Z,100055.73
2018-08-13T07:06:18.391Z,100060.39
2018-08-13T07:08:48.949Z,100058.75
2018-08-13T07:11:19.502Z,100061.52
2018-08-13T07:13:50.035Z,100053.98
2018-08-13T07:16:20.724Z,100057.08
2018-08-13T07:18:51.233Z,100061.20
2018-08-13T07:21:21.831Z,100058.30
2018-08-13T07:23:52.334Z,100058.49
2018-08-13T07:26:22.766Z,100056.62
2018-08-13T07:28:53.132Z,100049.31
2018-08-13T07:31:23.602Z,100053.34
2018-08-13T07:33:54.204Z,100054.66
2018-08-13T07:36:24.766Z,100055.22
2018-08-13T07:38:55.353Z,100054.77
2018-08-13T07:41:25.789Z,100049.64
2018-08-13T07:43:56.283Z,100051.80
2018-08-13T07:46:26.853Z,100049.89
2018-08-13T07:48:57.342Z,100042.98
2018-08-13T07:51:28.022Z,100048.47
2018-08-13T07:53:58.578Z,100044.40
2018-08-13T07:56:29.178Z,100037.53
2018-08-13T07:58:59.842Z,100036.96
2018-08-13T08:01:30.435Z,100041.04
2018-08-13T08:04:00.791Z,100036.08
2018-08-13T08:06:31.254Z,100039.11
2018-08-13T08:09:01.713Z,100035.98
2018-08-13T08:11:32.342Z,100041.70
2018-08-13T08:14:02.956Z,100051.97
2018-08-13T08:16:33.637Z,100051.25
2018-08-13T08:19:04.315Z,100050.91
2018-08-13T08:21:35.005Z,100064.33
2018-08-13T08:24:05.692Z,100051.58
2018-08-13T08:26:36.383Z,100048.81
2018-08-13T08:29:08.270Z,100044.33
2018-08-13T08:31:38.871Z,100044.27
2018-08-13T08:34:10.608Z,100050.84
2018-08-13T08:36:41.206Z,100055.91
2018-08-13T08:39:13.866Z,100046.27
2018-08-13T08:41:44.979Z,100051.27
2018-08-13T08:44:15.372Z,100056.18
2018-08-13T08:46:45.964Z,100052.97
2018-08-13T08:49:16.463Z,100056.66
2018-08-13T08:51:47.167Z,100049.22
2018-08-13T08:54:17.509Z,100057.97
2018-08-13T08:56:47.885Z,100053.13
2018-08-13T08:59:18.364Z,100053.27
2018-08-13T09:01:48.942Z,100055.02
2018-08-13T09:04:20.441Z,100050.98
2018-08-13T09:06:50.904Z,100051.84
2018-08-13T09:09:21.092Z,100049.55
2018-08-13T09:11:51.676Z,100056.27
2018-08-13T09:14:22.200Z,100062.31
2018-08-13T09:16:53.820Z,100062.31
2018-08-13T09:19:41.256Z,100070.10
2018-08-13T09:22:28.184Z,100069.08
2018-08-13T09:25:15.222Z,100069.61
2018-08-13T09:28:02.183Z,100074.40
2018-08-13T09:30:49.183Z,100074.91
2018-08-13T09:33:35.992Z,100079.37
2018-08-13T09:36:06.547Z,100088.80
2018-08-13T09:38:37.121Z,100085.34
2018-08-13T09:41:07.646Z,100085.52
2018-08-13T09:43:38.373Z,100087.83
2018-08-13T09:46:09.236Z,100093.05
2018-08-13T09:48:39.860Z,100095.23
2018-08-13T09:51:10.456Z,100084.70
2018-08-13T09:53:41.062Z,100094.72
2018-08-13T09:56:11.718Z,100100.84
2018-08-13T09:58:42.404Z,100098.42
2018-08-13T10:01:13.558Z,100088.49
2018-08-13T10:03:44.199Z,100096.64
2018-08-13T10:06:14.676Z,100090.75
2018-08-13T10:08:45.247Z,100092.92
2018-08-13T10:11:15.938Z,100093.81
2018-08-13T10:13:46.649Z,100101.20
2018-08-13T10:16:17.186Z,100106.80
2018-08-13T10:18:47.896Z,100099.39
2018-08-13T10:21:18.476Z,100109.56
2018-08-13T10:23:57.144Z,100106.89
2018-08-13T10:26:27.884Z,100109.27
2018-08-13T10:28:58.383Z,100112.36
2018-08-13T10:31:29.009Z,100114.56
2018-08-13T10:33:59.461Z,100112.98
2018-08-13T10:36:31.249Z,100113.02
2018-08-13T10:39:01.772Z,100106.98
2018-08-13T10:41:32.256Z,100101.45
2018-08-13T10:44:02.862Z,100101.79
2018-08-13T10:46:33.411Z,100105.92
2018-08-13T10:49:04.428Z,100108.22
2018-08-13T10:51:35.029Z,100114.18
2018-08-13T10:54:05.764Z,100104.95
2018-08-13T10:56:36.377Z,100115.67
2018-08-13T10:59:07.261Z,100115.67
2018-08-13T11:01:37.844Z,100119.44
2018-08-13T11:04:08.555Z,100121.73
2018-08-13T11:06:39.226Z,100117.22
2018-08-13T11:09:11.559Z,100119.44
2018-08-13T11:11:42.133Z,100120.84
2018-08-13T11:14:12.544Z,100131.87
2018-08-13T11:16:43.244Z,100132.84
2018-08-13T11:19:13.775Z,100130.70
2018-08-13T11:21:44.375Z,100132.22
2018-08-13T11:24:14.924Z,100134.06
2018-08-13T11:26:45.582Z,100133.59
2018-08-13T11:29:16.194Z,100133.05
2018-08-13T11:31:46.805Z,100126.82
2018-08-13T11:34:17.503Z,100123.03
2018-08-13T11:36:48.081Z,100119.88
2018-08-13T11:39:18.745Z,100113.25
2018-08-13T11:41:49.344Z,100107.32
2018-08-13T11:44:19.939Z,100105.48
2018-08-13T11:46:50.332Z,100100.56
2018-08-13T11:49:20.800Z,100095.46
2018-08-13T11:51:51.352Z,100091.94
2018-08-13T11:54:22.011Z,100088.15
2018-08-13T11:56:52.564Z,100086.38
2018-08-13T11:59:23.397Z,100085.84
2018-08-13T12:01:53.920Z,100091.47
2018-08-13T12:04:24.411Z,100098.88
2018-08-13T12:06:54.977Z,100098.23
2018-08-13T12:09:25.636Z,100097.89
2018-08-13T12:11:56.248Z,100101.19
2018-08-13T12:14:26.638Z,100095.60
2018-08-13T12:16:56.871Z,100095.44
2018-08-13T12:19:27.485Z,100099.77
2018-08-13T12:21:58.076Z,100100.05
2018-08-13T12:24:28.672Z,100110.59
2018-08-13T12:26:59.035Z,100111.91
2018-08-13T12:29:29.536Z,100107.84
2018-08-13T12:32:00.115Z,100104.17
2018-08-13T12:34:30.546Z,100099.03
2018-08-13T12:37:06.130Z,100097.41
2018-08-13T12:39:36.815Z,100099.41
2018-08-13T12:42:08.316Z,100103.38
2018-08-13T12:44:39.047Z,100103.02
2018-08-13T12:47:09.859Z,100102.36
2018-08-13T12:49:41.464Z,100095.06
2018-08-13T12:52:12.050Z,100100.14
2018-08-13T12:54:42.728Z,100094.28
2018-08-13T12:57:13.440Z,100093.61
2018-08-13T12:59:45.949Z,100087.70
2018-08-13T13:02:16.580Z,100090.16
2018-08-13T13:04:47.339Z,100091.63
2018-08-13T13:07:17.820Z,100081.06
2018-08-13T13:09:48.492Z,100076.80
2018-08-13T13:12:19.076Z,100069.66
2018-08-13T13:14:49.415Z,100071.14
2018-08-13T13:17:19.934Z,100075.30
2018-08-13T13:19:50.634Z,100062.88
2018-08-13T13:22:21.113Z,100063.75
2018-08-13T13:24:51.775Z,100058.27
2018-08-13T13:27:22.273Z,100066.53
2018-08-13T13:29:52.868Z,100069.48
2018-08-13T13:32:23.304Z,100058.44
2018-08-13T13:34:54.028Z,100058.13
2018-08-13T13:37:24.709Z,100057.31
2018-08-13T13:39:55.198Z,100053.82
2018-08-13T13:42:25.691Z,100055.31
2018-08-13T13:44:56.130Z,100046.38
2018-08-13T13:47:26.616Z,100054.50
2018-08-13T13:49:57.236Z,100050.52
2018-08-13T13:52:27.818Z,100048.83
2018-08-13T13:54:58.658Z,100045.95
2018-08-13T13:57:29.196Z,100037.42
2018-08-13T13:59:59.764Z,100032.97
2018-08-13T14:02:30.304Z,100018.03
2018-08-13T14:05:00.851Z,100023.58
2018-08-13T14:07:31.308Z,100016.87
2018-08-13T14:10:01.923Z,100027.64
2018-08-13T14:12:32.493Z,100019.97
2018-08-13T14:15:03.160Z,100010.19
2018-08-13T14:17:33.787Z,100015.41
2018-08-13T14:20:04.460Z,100014.78
2018-08-13T14:22:35.044Z,100011.88
2018-08-13T14:25:06.376Z,100007.87
2018-08-13T14:27:36.863Z,100002.80
2018-08-13T14:30:13.000Z,99993.27
2018-08-13T14:32:43.531Z,99995.25
2018-08-13T14:35:14.145Z,99984.20
2018-08-13T14:37:44.755Z,99985.68
2018-08-13T14:40:15.387Z,99983.30
2018-08-13T14:42:46.189Z,99976.78
2018-08-13T14:45:18.061Z,99984.95
2018-08-13T14:47:50.139Z,99978.80
2018-08-13T14:50:20.865Z,99981.65
2018-08-13T14:52:51.433Z,99981.17
2018-08-13T14:55:23.349Z,99987.41
2018-08-13T14:57:53.822Z,99980.37
2018-08-13T15:00:34.347Z,99980.95
2018-08-13T15:03:07.105Z,99985.78
2018-08-13T15:05:37.788Z,99980.37
2018-08-13T15:08:08.653Z,99979.73
2018-08-13T15:10:39.152Z,99970.64
2018-08-13T15:13:09.675Z,99961.36
2018-08-13T15:15:40.293Z,99967.01
2018-08-13T15:18:10.837Z,99972.64
2018-08-13T15:20:41.829Z,99969.39
2018-08-13T15:23:12.371Z,99970.75
2018-08-13T15:25:43.001Z,99957.63
2018-08-13T15:28:13.724Z,99963.19
2018-08-13T15:30:44.321Z,99963.56
2018-08-13T15:33:14.915Z,99965.08
2018-08-13T15:35:45.758Z,99961.94
2018-08-13T15:38:16.065Z,99962.46
2018-08-13T15:40:46.584Z,99960.84
2018-08-13T15:43:17.079Z,99958.84
2018-08-13T15:45:47.610Z,99961.35
2018-08-13T15:48:18.207Z,99954.56
2018-08-13T15:50:48.865Z,99947.13
2018-08-13T15:53:19.416Z,99942.20
2018-08-13T15:55:49.841Z,99942.41
2018-08-13T15:58:20.343Z,99938.52
2018-08-13T16:00:50.930Z,99947.56
2018-08-13T16:03:21.554Z,99946.46
2018-08-13T16:05:52.215Z,99948.11
2018-08-13T16:08:22.888Z,99941.95
2018-08-13T16:10:53.411Z,99944.20
2018-08-13T16:13:23.839Z,99942.98
2018-08-13T16:15:54.327Z,99944.53
2018-08-13T16:18:24.982Z,99935.78
2018-08-13T16:20:55.574Z,99937.33
2018-08-13T16:23:26.222Z,99927.11
2018-08-13T16:25:56.804Z,99925.27
2018-08-13T16:28:27.456Z,99910.83
2018-08-13T16:30:58.020Z,99909.95
2018-08-13T16:33:28.748Z,99913.66
2018-08-13T16:35:59.413Z,99915.33
2018-08-13T16:38:30.020Z,99912.95
2018-08-13T16:41:00.554Z,99915.67
2018-08-13T16:43:31.129Z,99913.32
2018-08-13T16:46:01.801Z,99910.49
2018-08-13T16:48:33.380Z,99906.81
2018-08-13T16:51:04.061Z,99908.38
2018-08-13T16:53:34.688Z,99908.78
2018-08-13T16:56:05.478Z,99909.32
2018-08-13T16:58:36.037Z,99912.00
2018-08-13T17:01:06.758Z,99917.26
2018-08-13T17:03:37.192Z,99912.87
2018-08-13T17:06:07.979Z,99912.27
2018-08-13T17:08:38.668Z,99910.88
2018-08-13T17:11:09.331Z,99902.49
2018-08-13T17:13:40.017Z,99908.78
2018-08-13T17:16:11.392Z,99923.34
2018-08-13T17:18:41.942Z,99922.91
2018-08-13T17:21:12.636Z,99912.40
2018-08-13T17:23:43.053Z,99905.48
2018-08-13T17:26:13.636Z,99914.76
2018-08-13T17:28:44.333Z,99909.61
2018-08-13T17:31:14.895Z,99917.41
2018-08-13T17:33:45.565Z,99905.70
2018-08-13T17:36:16.155Z,99907.28
2018-08-13T17:38:46.836Z,99903.53
2018-08-13T17:41:17.523Z,99904.92
2018-08-13T17:43:48.084Z,99899.96
2018-08-13T17:46:18.855Z,99903.66
2018-08-13T17:48:49.416Z,99906.70
2018-08-13T17:51:21.052Z,99905.92
2018-08-13T17:53:51.633Z,99921.05
2018-08-13T17:56:22.114Z,99922.44
2018-08-13T17:58:52.580Z,99915.61
2018-08-13T18:01:23.145Z,99909.08
2018-08-13T18:03:54.045Z,99903.50
2018-08-13T18:06:24.512Z,99911.94
2018-08-13T18:08:55.294Z,99914.12
2018-08-13T18:11:25.821Z,99914.97
2018-08-13T18:13:56.443Z,99921.95
2018-08-13T18:16:27.200Z,99921.80
2018-08-13T18:18:57.759Z,99924.82
2018-08-13T18:21:28.348Z,99921.69
2018-08-13T18:23:58.987Z,99929.94
2018-08-13T18:26:31.573Z,99934.13
2018-08-13T18:29:02.165Z,99934.76
2018-08-13T18:31:32.596Z,99938.75
2018-08-13T18:34:03.276Z,99936.63
2018-08-13T18:36:33.879Z,99942.25
2018-08-13T18:39:05.342Z,99943.41
2018-08-13T18:41:35.954Z,99946.52
2018-08-13T18:44:06.640Z,99953.11
2018-08-13T18:46:37.285Z,99958.90
2018-08-13T18:49:07.835Z,99961.84
2018-08-13T18:51:38.481Z,99966.26
2018-08-13T18:54:08.909Z,99965.61
2018-08-13T18:56:39.597Z,99963.30
2018-08-13T18:59:10.301Z,99968.39
2018-08-13T19:01:41.050Z,99977.11
2018-08-13T19:04:11.557Z,99975.94
2018-08-13T19:06:42.255Z,99982.69
2018-08-13T19:09:12.942Z,99983.32
2018-08-13T19:11:43.582Z,99978.00
2018-08-13T19:14:13.756Z,99979.69
2018-08-13T19:16:44.413Z,99972.46
2018-08-13T19:19:15.011Z,99980.34
2018-08-13T19:21:45.612Z,99976.67
2018-08-13T19:24:16.132Z,99971.78
2018-08-13T19:26:46.674Z,99986.08
2018-08-13T19:29:17.328Z,99983.60
2018-08-13T19:31:48.882Z,99987.84
2018-08-13T19:34:19.310Z,99989.59
2018-08-13T19:36:49.833Z,99990.10
2018-08-13T19:39:20.383Z,99982.77
2018-08-13T19:41:50.767Z,99989.80
2018-08-13T19:44:21.312Z,99987.59
2018-08-13T19:46:51.732Z,99987.70
2018-08-13T19:49:22.107Z,100000.03
2018-08-13T19:51:52.611Z,100001.98
2018-08-13T19:54:22.972Z,99999.78
2018-08-13T19:56:53.479Z,100001.54
2018-08-13T19:59:24.133Z,100000.35
2018-08-13T20:01:54.738Z,100002.33
2018-08-13T20:04:25.254Z,100006.86
2018-08-13T20:06:55.803Z,100005.39
2018-08-13T20:09:26.227Z,100009.62
2018-08-13T20:11:57.859Z,100012.22
2018-08-13T20:14:28.467Z,100013.42
2018-08-13T20:16:58.973Z,100020.28
2018-08-13T20:19:29.584Z,100021.56
2018-08-13T20:22:01.520Z,100017.34
2018-08-13T20:24:32.047Z,100021.40
2018-08-13T20:27:02.624Z,100019.42
2018-08-13T20:29:33.176Z,100026.55
2018-08-13T20:32:03.841Z,100021.08
2018-08-13T20:34:34.476Z,100020.52
2018-08-13T20:37:05.081Z,100018.11
2018-08-13T20:39:35.683Z,100018.11
2018-08-13T20:42:06.219Z,100024.57
2018-08-13T20:44:36.908Z,100021.83
2018-08-13T20:47:07.410Z,100020.86
2018-08-13T20:49:37.848Z,100019.85
2018-08-13T20:52:08.261Z,100020.40
2018-08-13T20:54:39.016Z,100023.06
2018-08-13T20:57:09.458Z,100026.26
2018-08-13T20:59:40.120Z,100027.22
2018-08-13T21:02:10.722Z,100022.40
2018-08-13T21:04:41.387Z,100024.72
2018-08-13T21:07:12.028Z,100024.97
2018-08-13T21:09:42.567Z,100039.08
2018-08-13T21:12:13.133Z,100043.84
2018-08-13T21:14:43.914Z,100046.36
2018-08-13T21:17:14.510Z,100049.30
2018-08-13T21:19:44.992Z,100053.59
2018-08-13T21:22:15.576Z,100051.03
2018-08-13T21:24:46.177Z,100054.70
2018-08-13T21:27:16.835Z,100073.83
2018-08-13T21:29:47.332Z,100080.34
2018-08-13T21:32:17.756Z,100083.17
2018-08-13T21:34:48.297Z,100077.16
2018-08-13T21:37:18.840Z,100081.25
2018-08-13T21:39:49.361Z,100089.30
2018-08-13T21:42:19.960Z,100089.39
2018-08-13T21:44:50.794Z,100093.84
2018-08-13T21:47:21.315Z,100088.08
2018-08-13T21:49:52.005Z,100097.47
2018-08-13T21:52:22.687Z,100102.05
2018-08-13T21:54:53.288Z,100104.06
2018-08-13T21:57:25.040Z,100098.14
2018-08-13T21:59:56.216Z,100107.57
2018-08-13T22:02:27.556Z,100110.75
2018-08-13T22:04:58.328Z,100114.48
2018-08-13T22:07:28.855Z,100111.45
2018-08-13T22:09:59.325Z,100114.83
2018-08-13T22:12:29.929Z,100118.66
2018-08-13T22:15:00.480Z,100116.45
2018-08-13T22:17:31.151Z,100115.08
2018-08-13T22:20:01.620Z,100111.20
2018-08-13T22:22:32.127Z,100118.67
2018-08-13T22:25:04.936Z,100113.98
2018-08-13T22:27:35.385Z,100116.31
2018-08-13T22:30:07.483Z,100117.70
2018-08-13T22:32:38.098Z,100115.09
2018-08-13T22:35:09.984Z,100123.02
2018-08-13T22:37:41.760Z,100130.58
2018-08-13T22:40:17.000Z,100128.97
2018-08-13T22:42:47.681Z,100128.26
2018-08-13T22:45:23.316Z,100124.53
2018-08-13T22:47:53.821Z,100130.14
2018-08-13T22:50:24.296Z,100121.77
2018-08-13T22:52:55.038Z,100127.98
2018-08-13T22:55:25.334Z,100132.83
2018-08-13T22:57:56.008Z,100136.84
2018-08-13T23:00:26.537Z,100137.95
2018-08-13T23:02:57.139Z,100138.55
2018-08-13T23:05:28.385Z,100143.66
2018-08-13T23:07:58.924Z,100144.01
2018-08-13T23:10:29.503Z,100143.66
2018-08-13T23:13:00.128Z,100149.11
2018-08-13T23:15:30.659Z,100145.31
2018-08-13T23:18:01.341Z,100143.33
2018-08-13T23:20:31.926Z,100136.69
2018-08-13T23:23:03.453Z,100147.73
2018-08-13T23:25:35.452Z,100145.77
2018-08-13T23:28:11.307Z,100142.35
2018-08-13T23:30:41.691Z,100138.99
2018-08-13T23:33:12.188Z,100145.25
2018-08-13T23:35:42.813Z,100152.14
2018-08-13T23:38:13.355Z,100155.55
2018-08-13T23:40:44.107Z,100148.99
2018-08-13T23:43:14.576Z,100156.78
2018-08-13T23:45:45.256Z,100150.01
2018-08-13T23:48:16.083Z,100153.45
2018-08-13T23:50:46.606Z,100153.88
2018-08-13T23:53:18.155Z,100152.25
2018-08-13T23:55:48.589Z,100150.28
2018-08-13T23:58:19.180Z,100149.25
